Airfield :
LOGIN :

Register | Disclaimer

   EN    FR    IT 

 










Legend :    VFR   Marginal VFR   IFR   Intensive IFR   Very Intensive IFR
Visi :
Ceiling :
>= 8 km
>= 3000ft
5 to 8 km
1000 to 3000 ft
1500m to 5 km
500 to 1000 ft
800 to 1500m
200 to 500 ft
< 800m
< 200 ft
Symbols :   Thunderstorms  Fog  Heavy snow  Heavy precipitations  Wind > 20 kt
SIGMETs :     Misc.  Thunderstorms  Icing  Turbulence  Mountain Waves  Volcanic Ashes






- Airport Elevation : 685 ft
- IATA code : VKO


UUWW - Vnukovo International

CURRENT METAR :
  • 310800Z 05002MPS 360V090 9999 BKN039 07/04 Q1019 R06/000070 NOSIG

EXPIRED METARs :
  • 310730Z 00000MPS 9999 BKN038 07/03 Q1019 R06/000070 NOSIG
  • 310700Z VRB01MPS 9999 BKN038 06/03 Q1019 R06/000070 NOSIG
  • 310630Z 00000MPS 9000 BKN039 06/03 Q1019 R06/000070 NOSIG
  • 310600Z 00000MPS 9000 BKN038 05/03 Q1018 R06/000070 NOSIG
  • 310530Z 00000MPS 7000 BKN038 05/03 Q1018 R06/000070 NOSIG

TAF TAF UUWW
Valid from the 31 at 06:00 until the 01 at 06:00 UTC


310455Z 3106/0106 VRB01MPS 6000 FEW007 BKN016 TX07/3112Z TN04/0103Z
TEMPO 3106/3108 BKN011
BECMG 3108/3110 03005MPS
TEMPO 3121/0103 FEW004 BKN011



MET'MAP, your aeronautical weather chart ! - Copyright ORBIFLY December 2007 - Disclaimer

ORBIFLY MET'MAP TEAM :

Programming & Development : Alexandra Zaïnal
Concept & original design : Baudouin d'Aumeries
Assistance for programming : Marc-Olivier Méhu
Technical & hardware support : Manuel Goepfert

Contact : metmap@orbifly.com




SOURCES & CREDITS :

   NOAA